ADDS METAR Data INFO
IDs: Format: Raw Decoded Include TAF

Data at: 0957 UTC 22 Sep 2017

KSET 220954Z AUTO 07003KT 6SM BR CLR 21/19 A3003 RMK AO2 SLP163 T02060194
No TAF found for KSET

KSTL 220951Z 00000KT 10SM CLR 23/21 A3004 RMK AO2 SLP159 T02330206

KSTL 220900Z 2209/2312 17005KT P6SM SKC
  FM221800 15008KT P6SM SCT250
  FM230100 15005KT P6SM SKC